<?xml version="1.0" encoding="UTF-8"?><gpx creator="Wikiloc - https://www.wikiloc.com" version="1.1" xmlns="http://www.topografix.com/GPX/1/1" xmlns:xsi="http://www.w3.org/2001/XMLSchema-instance" xsi:schemaLocation="http://www.topografix.com/GPX/1/1 http://www.topografix.com/GPX/1/1/gpx.xsd"><metadata><name>Wikiloc - Volta al Pla de Bacies (Port del Comte)</name><author><name>Turisme Solsonès</name><link href="https://www.wikiloc.com/wikiloc/user.do?id=439236"><text>Turisme Solsonès on Wikiloc</text></link></author><link href="https://www.wikiloc.com/walking-trails/volta-al-pla-de-bacies-port-del-comte-6893323"><text>Volta al Pla de Bacies (Port del Comte) on Wikiloc</text></link><time>2014-05-20T12:25:32Z</time></metadata><wpt lat="42.151446" lon="1.507473"><ele>.0</ele><time>2014-05-20T12:25:48Z</time><name>Mirador del Portell</name><cmt></cmt><desc></desc></wpt><wpt lat="42.161134" lon="1.518991"><ele>.0</ele><time>2014-05-20T12:25:48Z</time><name>Refugi de la Bòfia</name><cmt></cmt><desc></desc></wpt><wpt lat="42.152995" lon="1.516533"><ele>.0</ele><time>2014-05-20T12:25:48Z</time><name>Mirador d'Urdoll</name><cmt></cmt><desc></desc></wpt><wpt lat="42.152888" lon="1.514051"><ele>.0</ele><time>2014-05-20T12:25:48Z</time><name>Pàrquing</name><cmt></cmt><desc></desc></wpt><wpt lat="42.161954" lon="1.519952"><ele>.0</ele><time>2014-05-20T12:25:48Z</time><name>Pàrquing</name><cmt></cmt><desc></desc></wpt><trk><name>Volta al Pla de Bacies (Port del Comte)</name><cmt></cmt><desc></desc><trkseg><trkpt lat="42.151205" lon="1.507517"><ele>2041.121</ele><time>2019-08-17T09:06:50Z</time></trkpt><trkpt lat="42.151315" lon="1.507584"><ele>2042.341</ele><time>2019-08-17T09:07:10Z</time></trkpt><trkpt lat="42.151427" lon="1.507650"><ele>2040.805</ele><time>2019-08-17T09:07:30Z</time></trkpt><trkpt lat="42.151505" lon="1.507712"><ele>2039.707</ele><time>2019-08-17T09:07:50Z</time></trkpt><trkpt lat="42.151583" lon="1.507775"><ele>2038.738</ele><time>2019-08-17T09:08:10Z</time></trkpt><trkpt lat="42.151638" lon="1.507892"><ele>2037.620</ele><time>2019-08-17T09:08:30Z</time></trkpt><trkpt lat="42.151694" lon="1.508009"><ele>2036.791</ele><time>2019-08-17T09:08:50Z</time></trkpt><trkpt lat="42.151749" lon="1.508127"><ele>2036.215</ele><time>2019-08-17T09:09:10Z</time></trkpt><trkpt lat="42.151783" lon="1.508258"><ele>2035.795</ele><time>2019-08-17T09:09:30Z</time></trkpt><trkpt lat="42.151816" lon="1.508389"><ele>2035.584</ele><time>2019-08-17T09:09:50Z</time></trkpt><trkpt lat="42.151850" lon="1.508520"><ele>2037.615</ele><time>2019-08-17T09:10:10Z</time></trkpt><trkpt lat="42.151910" lon="1.508627"><ele>2040.881</ele><time>2019-08-17T09:10:30Z</time></trkpt><trkpt lat="42.151970" lon="1.508734"><ele>2042.761</ele><time>2019-08-17T09:10:50Z</time></trkpt><trkpt lat="42.151980" lon="1.508897"><ele>2041.117</ele><time>2019-08-17T09:11:10Z</time></trkpt><trkpt lat="42.151989" lon="1.509060"><ele>2040.007</ele><time>2019-08-17T09:11:30Z</time></trkpt><trkpt lat="42.151991" lon="1.509213"><ele>2039.094</ele><time>2019-08-17T09:11:50Z</time></trkpt><trkpt lat="42.151993" lon="1.509366"><ele>2038.176</ele><time>2019-08-17T09:12:10Z</time></trkpt><trkpt lat="42.151973" lon="1.509544"><ele>2036.397</ele><time>2019-08-17T09:12:30Z</time></trkpt><trkpt lat="42.152062" lon="1.509621"><ele>2035.971</ele><time>2019-08-17T09:12:50Z</time></trkpt><trkpt lat="42.152019" lon="1.509706"><ele>2035.531</ele><time>2019-08-17T09:13:10Z</time></trkpt><trkpt lat="42.151976" lon="1.509791"><ele>2034.540</ele><time>2019-08-17T09:13:30Z</time></trkpt><trkpt lat="42.151937" lon="1.509896"><ele>2031.871</ele><time>2019-08-17T09:13:50Z</time></trkpt><trkpt lat="42.151898" lon="1.510001"><ele>2030.821</ele><time>2019-08-17T09:14:10Z</time></trkpt><trkpt lat="42.151925" lon="1.510099"><ele>2030.041</ele><time>2019-08-17T09:14:30Z</time></trkpt><trkpt lat="42.151952" lon="1.510197"><ele>2029.005</ele><time>2019-08-17T09:14:50Z</time></trkpt><trkpt lat="42.151903" lon="1.510346"><ele>2024.507</ele><time>2019-08-17T09:15:10Z</time></trkpt><trkpt lat="42.151941" lon="1.510424"><ele>2023.638</ele><time>2019-08-17T09:15:30Z</time></trkpt><trkpt lat="42.151978" lon="1.510502"><ele>2022.720</ele><time>2019-08-17T09:15:50Z</time></trkpt><trkpt lat="42.152045" lon="1.510560"><ele>2022.551</ele><time>2019-08-17T09:16:10Z</time></trkpt><trkpt lat="42.152112" lon="1.510618"><ele>2022.535</ele><time>2019-08-17T09:16:30Z</time></trkpt><trkpt lat="42.152157" lon="1.510701"><ele>2021.815</ele><time>2019-08-17T09:16:50Z</time></trkpt><trkpt lat="42.152202" lon="1.510784"><ele>2021.494</ele><time>2019-08-17T09:17:10Z</time></trkpt><trkpt lat="42.152246" lon="1.510918"><ele>2020.765</ele><time>2019-08-17T09:17:30Z</time></trkpt><trkpt lat="42.152289" lon="1.511052"><ele>2019.918</ele><time>2019-08-17T09:17:50Z</time></trkpt><trkpt lat="42.152333" lon="1.511186"><ele>2019.098</ele><time>2019-08-17T09:18:10Z</time></trkpt><trkpt lat="42.152319" lon="1.511295"><ele>2018.117</ele><time>2019-08-17T09:18:30Z</time></trkpt><trkpt lat="42.152306" lon="1.511404"><ele>2017.307</ele><time>2019-08-17T09:18:50Z</time></trkpt><trkpt lat="42.152293" lon="1.511537"><ele>2016.197</ele><time>2019-08-17T09:19:10Z</time></trkpt><trkpt lat="42.152280" lon="1.511671"><ele>2014.989</ele><time>2019-08-17T09:19:30Z</time></trkpt><trkpt lat="42.152278" lon="1.511789"><ele>2013.930</ele><time>2019-08-17T09:19:50Z</time></trkpt><trkpt lat="42.152276" lon="1.511908"><ele>2012.684</ele><time>2019-08-17T09:20:10Z</time></trkpt><trkpt lat="42.152237" lon="1.512003"><ele>2011.164</ele><time>2019-08-17T09:20:30Z</time></trkpt><trkpt lat="42.152198" lon="1.512098"><ele>2010.063</ele><time>2019-08-17T09:20:50Z</time></trkpt><trkpt lat="42.152189" lon="1.512271"><ele>2008.374</ele><time>2019-08-17T09:21:10Z</time></trkpt><trkpt lat="42.152180" lon="1.512444"><ele>2006.822</ele><time>2019-08-17T09:21:30Z</time></trkpt><trkpt lat="42.152203" lon="1.512557"><ele>2006.362</ele><time>2019-08-17T09:21:50Z</time></trkpt><trkpt lat="42.152227" lon="1.512670"><ele>2006.108</ele><time>2019-08-17T09:22:10Z</time></trkpt><trkpt lat="42.152303" lon="1.512816"><ele>2005.907</ele><time>2019-08-17T09:22:30Z</time></trkpt><trkpt lat="42.152278" lon="1.512936"><ele>2005.038</ele><time>2019-08-17T09:22:50Z</time></trkpt><trkpt lat="42.152254" lon="1.513055"><ele>2004.350</ele><time>2019-08-17T09:23:10Z</time></trkpt><trkpt lat="42.152263" lon="1.513207"><ele>2003.461</ele><time>2019-08-17T09:23:30Z</time></trkpt><trkpt lat="42.152273" lon="1.513360"><ele>2002.595</ele><time>2019-08-17T09:23:50Z</time></trkpt><trkpt lat="42.152238" lon="1.513485"><ele>2001.585</ele><time>2019-08-17T09:24:10Z</time></trkpt><trkpt lat="42.152202" lon="1.513609"><ele>2000.534</ele><time>2019-08-17T09:24:30Z</time></trkpt><trkpt lat="42.152241" lon="1.513722"><ele>2000.025</ele><time>2019-08-17T09:24:50Z</time></trkpt><trkpt lat="42.152279" lon="1.513835"><ele>1999.591</ele><time>2019-08-17T09:25:10Z</time></trkpt><trkpt lat="42.152325" lon="1.513957"><ele>1998.981</ele><time>2019-08-17T09:25:30Z</time></trkpt><trkpt lat="42.152370" lon="1.514079"><ele>1998.219</ele><time>2019-08-17T09:25:50Z</time></trkpt><trkpt lat="42.152427" lon="1.514187"><ele>1997.407</ele><time>2019-08-17T09:26:10Z</time></trkpt><trkpt lat="42.152483" lon="1.514294"><ele>1996.565</ele><time>2019-08-17T09:26:30Z</time></trkpt><trkpt lat="42.152602" lon="1.514351"><ele>1995.487</ele><time>2019-08-17T09:26:50Z</time></trkpt><trkpt lat="42.152609" lon="1.514347"><ele>1995.398</ele><time>2019-08-17T09:27:10Z</time></trkpt><trkpt lat="42.152671" lon="1.514315"><ele>1995.182</ele><time>2019-08-17T09:27:30Z</time></trkpt><trkpt lat="42.152741" lon="1.514278"><ele>1994.962</ele><time>2019-08-17T09:27:50Z</time></trkpt><trkpt lat="42.152858" lon="1.514246"><ele>1994.161</ele><time>2019-08-17T09:28:10Z</time></trkpt><trkpt lat="42.152983" lon="1.514258"><ele>1995.962</ele><time>2019-08-17T09:28:30Z</time></trkpt><trkpt lat="42.153108" lon="1.514270"><ele>1997.381</ele><time>2019-08-17T09:28:50Z</time></trkpt><trkpt lat="42.153205" lon="1.514350"><ele>1998.061</ele><time>2019-08-17T09:29:10Z</time></trkpt><trkpt lat="42.153301" lon="1.514430"><ele>1998.917</ele><time>2019-08-17T09:29:30Z</time></trkpt><trkpt lat="42.153398" lon="1.514510"><ele>1999.907</ele><time>2019-08-17T09:29:50Z</time></trkpt><trkpt lat="42.153476" lon="1.514602"><ele>2000.124</ele><time>2019-08-17T09:30:10Z</time></trkpt><trkpt lat="42.153555" lon="1.514694"><ele>2000.156</ele><time>2019-08-17T09:30:30Z</time></trkpt><trkpt lat="42.153655" lon="1.514795"><ele>2000.167</ele><time>2019-08-17T09:30:50Z</time></trkpt><trkpt lat="42.153755" lon="1.514897"><ele>1999.991</ele><time>2019-08-17T09:31:10Z</time></trkpt><trkpt lat="42.153874" lon="1.514929"><ele>1999.681</ele><time>2019-08-17T09:31:30Z</time></trkpt><trkpt lat="42.153992" lon="1.514960"><ele>1999.030</ele><time>2019-08-17T09:31:50Z</time></trkpt><trkpt lat="42.154056" lon="1.514965"><ele>1998.891</ele><time>2019-08-17T09:32:10Z</time></trkpt><trkpt lat="42.154087" lon="1.514968"><ele>1998.776</ele><time>2019-08-17T09:32:30Z</time></trkpt><trkpt lat="42.154111" lon="1.515091"><ele>1997.890</ele><time>2019-08-17T09:32:50Z</time></trkpt><trkpt lat="42.154134" lon="1.515214"><ele>1997.919</ele><time>2019-08-17T09:33:10Z</time></trkpt><trkpt lat="42.154125" lon="1.515342"><ele>1998.607</ele><time>2019-08-17T09:33:30Z</time></trkpt><trkpt lat="42.154116" lon="1.515471"><ele>1999.253</ele><time>2019-08-17T09:33:50Z</time></trkpt><trkpt lat="42.154048" lon="1.515582"><ele>1999.255</ele><time>2019-08-17T09:34:10Z</time></trkpt><trkpt lat="42.153979" lon="1.515692"><ele>1999.186</ele><time>2019-08-17T09:34:30Z</time></trkpt><trkpt lat="42.153925" lon="1.515807"><ele>1998.910</ele><time>2019-08-17T09:34:50Z</time></trkpt><trkpt lat="42.153872" lon="1.515922"><ele>1998.690</ele><time>2019-08-17T09:35:10Z</time></trkpt><trkpt lat="42.153793" lon="1.516045"><ele>1998.039</ele><time>2019-08-17T09:35:30Z</time></trkpt><trkpt lat="42.153713" lon="1.516169"><ele>1997.410</ele><time>2019-08-17T09:35:50Z</time></trkpt><trkpt lat="42.153634" lon="1.516293"><ele>1996.748</ele><time>2019-08-17T09:36:10Z</time></trkpt><trkpt lat="42.153602" lon="1.516382"><ele>1996.561</ele><time>2019-08-17T09:36:30Z</time></trkpt><trkpt lat="42.153587" lon="1.516425"><ele>1996.317</ele><time>2019-08-17T09:36:50Z</time></trkpt><trkpt lat="42.153570" lon="1.516472"><ele>1996.207</ele><time>2019-08-17T09:37:10Z</time></trkpt><trkpt lat="42.153587" lon="1.516640"><ele>1995.970</ele><time>2019-08-17T09:37:30Z</time></trkpt><trkpt lat="42.153567" lon="1.516759"><ele>1995.582</ele><time>2019-08-17T09:37:50Z</time></trkpt><trkpt lat="42.153546" lon="1.516878"><ele>1995.183</ele><time>2019-08-17T09:38:10Z</time></trkpt><trkpt lat="42.153474" lon="1.517018"><ele>1994.197</ele><time>2019-08-17T09:38:30Z</time></trkpt><trkpt lat="42.153465" lon="1.517146"><ele>1993.627</ele><time>2019-08-17T09:38:50Z</time></trkpt><trkpt lat="42.153455" lon="1.517275"><ele>1993.086</ele><time>2019-08-17T09:39:10Z</time></trkpt><trkpt lat="42.153471" lon="1.517373"><ele>1992.957</ele><time>2019-08-17T09:39:30Z</time></trkpt><trkpt lat="42.153487" lon="1.517472"><ele>1992.811</ele><time>2019-08-17T09:39:50Z</time></trkpt><trkpt lat="42.153548" lon="1.517589"><ele>1993.821</ele><time>2019-08-17T09:40:10Z</time></trkpt><trkpt lat="42.153611" lon="1.517671"><ele>1994.803</ele><time>2019-08-17T09:40:30Z</time></trkpt><trkpt lat="42.153675" lon="1.517754"><ele>1995.507</ele><time>2019-08-17T09:40:50Z</time></trkpt><trkpt lat="42.153739" lon="1.517881"><ele>1996.347</ele><time>2019-08-17T09:41:10Z</time></trkpt><trkpt lat="42.153803" lon="1.518008"><ele>1997.099</ele><time>2019-08-17T09:41:30Z</time></trkpt><trkpt lat="42.153860" lon="1.518115"><ele>1997.770</ele><time>2019-08-17T09:41:50Z</time></trkpt><trkpt lat="42.153916" lon="1.518223"><ele>1997.784</ele><time>2019-08-17T09:42:10Z</time></trkpt><trkpt lat="42.153980" lon="1.518280"><ele>1997.894</ele><time>2019-08-17T09:42:30Z</time></trkpt><trkpt lat="42.154043" lon="1.518338"><ele>1997.543</ele><time>2019-08-17T09:42:50Z</time></trkpt><trkpt lat="42.154131" lon="1.518321"><ele>1998.624</ele><time>2019-08-17T09:43:10Z</time></trkpt><trkpt lat="42.154219" lon="1.518304"><ele>1999.353</ele><time>2019-08-17T09:43:30Z</time></trkpt><trkpt lat="42.154315" lon="1.518322"><ele>1999.704</ele><time>2019-08-17T09:43:50Z</time></trkpt><trkpt lat="42.154410" lon="1.518340"><ele>2000.314</ele><time>2019-08-17T09:44:10Z</time></trkpt><trkpt lat="42.154456" lon="1.518487"><ele>2000.607</ele><time>2019-08-17T09:44:30Z</time></trkpt><trkpt lat="42.154458" lon="1.518630"><ele>2001.431</ele><time>2019-08-17T09:44:50Z</time></trkpt><trkpt lat="42.154460" lon="1.518773"><ele>2001.623</ele><time>2019-08-17T09:45:10Z</time></trkpt><trkpt lat="42.154491" lon="1.518861"><ele>2001.884</ele><time>2019-08-17T09:45:30Z</time></trkpt><trkpt lat="42.154521" lon="1.518949"><ele>2001.998</ele><time>2019-08-17T09:45:50Z</time></trkpt><trkpt lat="42.154523" lon="1.519098"><ele>2001.668</ele><time>2019-08-17T09:46:10Z</time></trkpt><trkpt lat="42.154569" lon="1.519225"><ele>2001.857</ele><time>2019-08-17T09:46:30Z</time></trkpt><trkpt lat="42.154541" lon="1.519384"><ele>2001.518</ele><time>2019-08-17T09:46:50Z</time></trkpt><trkpt lat="42.154555" lon="1.519561"><ele>2001.733</ele><time>2019-08-17T09:47:10Z</time></trkpt><trkpt lat="42.154568" lon="1.519738"><ele>2001.723</ele><time>2019-08-17T09:47:30Z</time></trkpt><trkpt lat="42.154592" lon="1.519866"><ele>2001.715</ele><time>2019-08-17T09:47:50Z</time></trkpt><trkpt lat="42.154615" lon="1.519994"><ele>2001.707</ele><time>2019-08-17T09:48:10Z</time></trkpt><trkpt lat="42.154639" lon="1.520122"><ele>2001.829</ele><time>2019-08-17T09:48:30Z</time></trkpt><trkpt lat="42.154652" lon="1.520285"><ele>2001.331</ele><time>2019-08-17T09:48:50Z</time></trkpt><trkpt lat="42.154665" lon="1.520448"><ele>1999.542</ele><time>2019-08-17T09:49:10Z</time></trkpt><trkpt lat="42.154696" lon="1.520536"><ele>1999.836</ele><time>2019-08-17T09:49:30Z</time></trkpt><trkpt lat="42.154726" lon="1.520624"><ele>2000.556</ele><time>2019-08-17T09:49:50Z</time></trkpt><trkpt lat="42.154665" lon="1.520739"><ele>2001.565</ele><time>2019-08-17T09:50:10Z</time></trkpt><trkpt lat="42.154604" lon="1.520854"><ele>2002.636</ele><time>2019-08-17T09:50:30Z</time></trkpt><trkpt lat="42.154584" lon="1.520993"><ele>2004.156</ele><time>2019-08-17T09:50:50Z</time></trkpt><trkpt lat="42.154564" lon="1.521132"><ele>2005.159</ele><time>2019-08-17T09:51:10Z</time></trkpt><trkpt lat="42.154609" lon="1.521254"><ele>2005.614</ele><time>2019-08-17T09:51:30Z</time></trkpt><trkpt lat="42.154655" lon="1.521377"><ele>2006.007</ele><time>2019-08-17T09:51:50Z</time></trkpt><trkpt lat="42.154745" lon="1.521503"><ele>2006.691</ele><time>2019-08-17T09:52:10Z</time></trkpt><trkpt lat="42.154813" lon="1.521649"><ele>2007.283</ele><time>2019-08-17T09:52:30Z</time></trkpt><trkpt lat="42.154881" lon="1.521796"><ele>2008.114</ele><time>2019-08-17T09:52:50Z</time></trkpt><trkpt lat="42.154949" lon="1.521943"><ele>2009.178</ele><time>2019-08-17T09:53:10Z</time></trkpt><trkpt lat="42.155015" lon="1.522097"><ele>2009.348</ele><time>2019-08-17T09:53:30Z</time></trkpt><trkpt lat="42.155082" lon="1.522251"><ele>2010.097</ele><time>2019-08-17T09:53:50Z</time></trkpt><trkpt lat="42.155148" lon="1.522405"><ele>2010.428</ele><time>2019-08-17T09:54:10Z</time></trkpt><trkpt lat="42.155215" lon="1.522559"><ele>2010.451</ele><time>2019-08-17T09:54:30Z</time></trkpt><trkpt lat="42.155291" lon="1.522666"><ele>2010.601</ele><time>2019-08-17T09:54:50Z</time></trkpt><trkpt lat="42.155368" lon="1.522773"><ele>2010.811</ele><time>2019-08-17T09:55:10Z</time></trkpt><trkpt lat="42.155445" lon="1.522880"><ele>2010.907</ele><time>2019-08-17T09:55:30Z</time></trkpt><trkpt lat="42.155521" lon="1.522987"><ele>2011.071</ele><time>2019-08-17T09:55:50Z</time></trkpt><trkpt lat="42.155607" lon="1.523089"><ele>2011.313</ele><time>2019-08-17T09:56:10Z</time></trkpt><trkpt lat="42.155693" lon="1.523190"><ele>2011.784</ele><time>2019-08-17T09:56:30Z</time></trkpt><trkpt lat="42.155779" lon="1.523292"><ele>2012.268</ele><time>2019-08-17T09:56:50Z</time></trkpt><trkpt lat="42.155865" lon="1.523394"><ele>2012.738</ele><time>2019-08-17T09:57:10Z</time></trkpt><trkpt lat="42.155944" lon="1.523454"><ele>2013.047</ele><time>2019-08-17T09:57:30Z</time></trkpt><trkpt lat="42.156023" lon="1.523515"><ele>2013.438</ele><time>2019-08-17T09:57:50Z</time></trkpt><trkpt lat="42.156102" lon="1.523576"><ele>2013.863</ele><time>2019-08-17T09:58:10Z</time></trkpt><trkpt lat="42.156215" lon="1.523613"><ele>2014.344</ele><time>2019-08-17T09:58:30Z</time></trkpt><trkpt lat="42.156329" lon="1.523650"><ele>2014.718</ele><time>2019-08-17T09:58:50Z</time></trkpt><trkpt lat="42.156442" lon="1.523687"><ele>2015.107</ele><time>2019-08-17T09:59:10Z</time></trkpt><trkpt lat="42.156574" lon="1.523674"><ele>2015.732</ele><time>2019-08-17T09:59:30Z</time></trkpt><trkpt lat="42.156707" lon="1.523661"><ele>2016.434</ele><time>2019-08-17T09:59:50Z</time></trkpt><trkpt lat="42.156839" lon="1.523648"><ele>2017.295</ele><time>2019-08-17T10:00:10Z</time></trkpt><trkpt lat="42.156971" lon="1.523635"><ele>2018.059</ele><time>2019-08-17T10:00:30Z</time></trkpt><trkpt lat="42.157065" lon="1.523570"><ele>2018.689</ele><time>2019-08-17T10:00:50Z</time></trkpt><trkpt lat="42.157160" lon="1.523505"><ele>2019.248</ele><time>2019-08-17T10:01:10Z</time></trkpt><trkpt lat="42.157255" lon="1.523441"><ele>2019.719</ele><time>2019-08-17T10:01:30Z</time></trkpt><trkpt lat="42.157340" lon="1.523345"><ele>2020.159</ele><time>2019-08-17T10:01:50Z</time></trkpt><trkpt lat="42.157426" lon="1.523250"><ele>2020.303</ele><time>2019-08-17T10:02:10Z</time></trkpt><trkpt lat="42.157511" lon="1.523156"><ele>2020.623</ele><time>2019-08-17T10:02:30Z</time></trkpt><trkpt lat="42.157597" lon="1.523061"><ele>2021.007</ele><time>2019-08-17T10:02:50Z</time></trkpt><trkpt lat="42.157683" lon="1.522966"><ele>2021.561</ele><time>2019-08-17T10:03:10Z</time></trkpt><trkpt lat="42.157771" lon="1.522871"><ele>2022.113</ele><time>2019-08-17T10:03:30Z</time></trkpt><trkpt lat="42.157859" lon="1.522776"><ele>2022.644</ele><time>2019-08-17T10:03:50Z</time></trkpt><trkpt lat="42.157948" lon="1.522681"><ele>2023.528</ele><time>2019-08-17T10:04:10Z</time></trkpt><trkpt lat="42.158036" lon="1.522586"><ele>2024.568</ele><time>2019-08-17T10:04:30Z</time></trkpt><trkpt lat="42.158125" lon="1.522491"><ele>2025.397</ele><time>2019-08-17T10:04:50Z</time></trkpt><trkpt lat="42.158227" lon="1.522405"><ele>2025.828</ele><time>2019-08-17T10:05:10Z</time></trkpt><trkpt lat="42.158328" lon="1.522319"><ele>2026.389</ele><time>2019-08-17T10:05:30Z</time></trkpt><trkpt lat="42.158430" lon="1.522232"><ele>2026.606</ele><time>2019-08-17T10:05:50Z</time></trkpt><trkpt lat="42.158532" lon="1.522146"><ele>2027.326</ele><time>2019-08-17T10:06:10Z</time></trkpt><trkpt lat="42.158639" lon="1.522060"><ele>2028.407</ele><time>2019-08-17T10:06:30Z</time></trkpt><trkpt lat="42.158746" lon="1.521974"><ele>2029.124</ele><time>2019-08-17T10:06:50Z</time></trkpt><trkpt lat="42.158853" lon="1.521889"><ele>2029.566</ele><time>2019-08-17T10:07:10Z</time></trkpt><trkpt lat="42.158960" lon="1.521803"><ele>2030.057</ele><time>2019-08-17T10:07:30Z</time></trkpt><trkpt lat="42.159067" lon="1.521717"><ele>2030.741</ele><time>2019-08-17T10:07:50Z</time></trkpt><trkpt lat="42.159174" lon="1.521631"><ele>2031.051</ele><time>2019-08-17T10:08:10Z</time></trkpt><trkpt lat="42.159281" lon="1.521546"><ele>2031.760</ele><time>2019-08-17T10:08:30Z</time></trkpt><trkpt lat="42.159396" lon="1.521456"><ele>2032.371</ele><time>2019-08-17T10:08:50Z</time></trkpt><trkpt lat="42.159511" lon="1.521366"><ele>2033.534</ele><time>2019-08-17T10:09:10Z</time></trkpt><trkpt lat="42.159626" lon="1.521277"><ele>2033.555</ele><time>2019-08-17T10:09:30Z</time></trkpt><trkpt lat="42.159741" lon="1.521187"><ele>2034.210</ele><time>2019-08-17T10:09:50Z</time></trkpt><trkpt lat="42.159856" lon="1.521097"><ele>2035.107</ele><time>2019-08-17T10:10:10Z</time></trkpt><trkpt lat="42.159966" lon="1.521026"><ele>2035.849</ele><time>2019-08-17T10:10:30Z</time></trkpt><trkpt lat="42.160075" lon="1.520954"><ele>2036.451</ele><time>2019-08-17T10:10:50Z</time></trkpt><trkpt lat="42.160184" lon="1.520882"><ele>2036.832</ele><time>2019-08-17T10:11:10Z</time></trkpt><trkpt lat="42.160266" lon="1.520829"><ele>2037.276</ele><time>2019-08-17T10:11:30Z</time></trkpt><trkpt lat="42.160294" lon="1.520811"><ele>2037.416</ele><time>2019-08-17T10:11:50Z</time></trkpt><trkpt lat="42.160403" lon="1.520739"><ele>2037.935</ele><time>2019-08-17T10:12:10Z</time></trkpt><trkpt lat="42.160498" lon="1.520675"><ele>2038.746</ele><time>2019-08-17T10:12:30Z</time></trkpt><trkpt lat="42.160593" lon="1.520611"><ele>2039.423</ele><time>2019-08-17T10:12:50Z</time></trkpt><trkpt lat="42.160687" lon="1.520547"><ele>2040.183</ele><time>2019-08-17T10:13:10Z</time></trkpt><trkpt lat="42.160782" lon="1.520483"><ele>2040.711</ele><time>2019-08-17T10:13:30Z</time></trkpt><trkpt lat="42.160887" lon="1.520415"><ele>2041.007</ele><time>2019-08-17T10:13:50Z</time></trkpt><trkpt lat="42.160991" lon="1.520347"><ele>2041.378</ele><time>2019-08-17T10:14:10Z</time></trkpt><trkpt lat="42.161096" lon="1.520278"><ele>2042.450</ele><time>2019-08-17T10:14:30Z</time></trkpt><trkpt lat="42.161223" lon="1.520252"><ele>2043.441</ele><time>2019-08-17T10:14:50Z</time></trkpt><trkpt lat="42.161350" lon="1.520226"><ele>2044.225</ele><time>2019-08-17T10:15:10Z</time></trkpt><trkpt lat="42.161477" lon="1.520200"><ele>2044.575</ele><time>2019-08-17T10:15:30Z</time></trkpt><trkpt lat="42.161572" lon="1.520178"><ele>2044.484</ele><time>2019-08-17T10:15:50Z</time></trkpt><trkpt lat="42.161668" lon="1.520156"><ele>2044.625</ele><time>2019-08-17T10:16:10Z</time></trkpt><trkpt lat="42.161793" lon="1.520153"><ele>2045.418</ele><time>2019-08-17T10:16:30Z</time></trkpt><trkpt lat="42.161918" lon="1.520150"><ele>2046.698</ele><time>2019-08-17T10:16:50Z</time></trkpt><trkpt lat="42.161987" lon="1.520109"><ele>2047.117</ele><time>2019-08-17T10:17:10Z</time></trkpt><trkpt lat="42.162056" lon="1.520068"><ele>2047.507</ele><time>2019-08-17T10:17:30Z</time></trkpt><trkpt lat="42.162129" lon="1.520022"><ele>2047.617</ele><time>2019-08-17T10:17:50Z</time></trkpt><trkpt lat="42.162202" lon="1.519975"><ele>2047.619</ele><time>2019-08-17T10:18:10Z</time></trkpt><trkpt lat="42.162170" lon="1.519956"><ele>2047.370</ele><time>2019-08-17T10:18:30Z</time></trkpt><trkpt lat="42.162093" lon="1.519909"><ele>2047.344</ele><time>2019-08-17T10:18:50Z</time></trkpt><trkpt lat="42.161984" lon="1.519842"><ele>2046.954</ele><time>2019-08-17T10:19:10Z</time></trkpt><trkpt lat="42.161876" lon="1.519776"><ele>2047.353</ele><time>2019-08-17T10:19:30Z</time></trkpt><trkpt lat="42.161774" lon="1.519724"><ele>2047.674</ele><time>2019-08-17T10:19:50Z</time></trkpt><trkpt lat="42.161673" lon="1.519672"><ele>2047.679</ele><time>2019-08-17T10:20:10Z</time></trkpt><trkpt lat="42.161571" lon="1.519620"><ele>2047.605</ele><time>2019-08-17T10:20:30Z</time></trkpt><trkpt lat="42.161469" lon="1.519568"><ele>2047.925</ele><time>2019-08-17T10:20:50Z</time></trkpt><trkpt lat="42.161375" lon="1.519518"><ele>2047.807</ele><time>2019-08-17T10:21:10Z</time></trkpt><trkpt lat="42.161280" lon="1.519469"><ele>2047.663</ele><time>2019-08-17T10:21:30Z</time></trkpt><trkpt lat="42.161186" lon="1.519419"><ele>2047.135</ele><time>2019-08-17T10:21:50Z</time></trkpt><trkpt lat="42.161091" lon="1.519369"><ele>2047.026</ele><time>2019-08-17T10:22:10Z</time></trkpt><trkpt lat="42.160997" lon="1.519289"><ele>2046.890</ele><time>2019-08-17T10:22:30Z</time></trkpt><trkpt lat="42.160903" lon="1.519209"><ele>2046.570</ele><time>2019-08-17T10:22:50Z</time></trkpt><trkpt lat="42.160809" lon="1.519129"><ele>2045.919</ele><time>2019-08-17T10:23:10Z</time></trkpt><trkpt lat="42.160714" lon="1.519039"><ele>2045.140</ele><time>2019-08-17T10:23:30Z</time></trkpt><trkpt lat="42.160620" lon="1.518949"><ele>2044.289</ele><time>2019-08-17T10:23:50Z</time></trkpt><trkpt lat="42.160526" lon="1.518859"><ele>2044.006</ele><time>2019-08-17T10:24:10Z</time></trkpt><trkpt lat="42.160422" lon="1.518807"><ele>2043.926</ele><time>2019-08-17T10:24:30Z</time></trkpt><trkpt lat="42.160319" lon="1.518755"><ele>2043.807</ele><time>2019-08-17T10:24:50Z</time></trkpt><trkpt lat="42.160215" lon="1.518703"><ele>2043.454</ele><time>2019-08-17T10:25:10Z</time></trkpt><trkpt lat="42.160112" lon="1.518651"><ele>2042.676</ele><time>2019-08-17T10:25:30Z</time></trkpt><trkpt lat="42.159987" lon="1.518654"><ele>2041.837</ele><time>2019-08-17T10:25:50Z</time></trkpt><trkpt lat="42.159862" lon="1.518657"><ele>2041.261</ele><time>2019-08-17T10:26:10Z</time></trkpt><trkpt lat="42.159737" lon="1.518660"><ele>2040.671</ele><time>2019-08-17T10:26:30Z</time></trkpt><trkpt lat="42.159612" lon="1.518663"><ele>2039.980</ele><time>2019-08-17T10:26:50Z</time></trkpt><trkpt lat="42.159494" lon="1.518652"><ele>2039.181</ele><time>2019-08-17T10:27:10Z</time></trkpt><trkpt lat="42.159377" lon="1.518642"><ele>2038.145</ele><time>2019-08-17T10:27:30Z</time></trkpt><trkpt lat="42.159259" lon="1.518631"><ele>2037.447</ele><time>2019-08-17T10:27:50Z</time></trkpt><trkpt lat="42.159155" lon="1.518584"><ele>2037.011</ele><time>2019-08-17T10:28:10Z</time></trkpt><trkpt lat="42.159052" lon="1.518537"><ele>2036.307</ele><time>2019-08-17T10:28:30Z</time></trkpt><trkpt lat="42.158942" lon="1.518447"><ele>2035.720</ele><time>2019-08-17T10:28:50Z</time></trkpt><trkpt lat="42.158832" lon="1.518357"><ele>2035.152</ele><time>2019-08-17T10:29:10Z</time></trkpt><trkpt lat="42.158722" lon="1.518266"><ele>2034.293</ele><time>2019-08-17T10:29:30Z</time></trkpt><trkpt lat="42.158612" lon="1.518176"><ele>2033.157</ele><time>2019-08-17T10:29:50Z</time></trkpt><trkpt lat="42.158502" lon="1.518086"><ele>2032.057</ele><time>2019-08-17T10:30:10Z</time></trkpt><trkpt lat="42.158414" lon="1.517966"><ele>2031.396</ele><time>2019-08-17T10:30:30Z</time></trkpt><trkpt lat="42.158327" lon="1.517846"><ele>2030.727</ele><time>2019-08-17T10:30:50Z</time></trkpt><trkpt lat="42.158240" lon="1.517726"><ele>2030.198</ele><time>2019-08-17T10:31:10Z</time></trkpt><trkpt lat="42.158145" lon="1.517664"><ele>2029.115</ele><time>2019-08-17T10:31:30Z</time></trkpt><trkpt lat="42.158051" lon="1.517602"><ele>2028.126</ele><time>2019-08-17T10:31:50Z</time></trkpt><trkpt lat="42.157956" lon="1.517540"><ele>2027.407</ele><time>2019-08-17T10:32:10Z</time></trkpt><trkpt lat="42.157862" lon="1.517478"><ele>2026.825</ele><time>2019-08-17T10:32:30Z</time></trkpt><trkpt lat="42.157751" lon="1.517426"><ele>2025.867</ele><time>2019-08-17T10:32:50Z</time></trkpt><trkpt lat="42.157640" lon="1.517375"><ele>2024.978</ele><time>2019-08-17T10:33:10Z</time></trkpt><trkpt lat="42.157529" lon="1.517323"><ele>2023.942</ele><time>2019-08-17T10:33:30Z</time></trkpt><trkpt lat="42.157418" lon="1.517271"><ele>2022.772</ele><time>2019-08-17T10:33:50Z</time></trkpt><trkpt lat="42.157318" lon="1.517170"><ele>2021.731</ele><time>2019-08-17T10:34:10Z</time></trkpt><trkpt lat="42.157217" lon="1.517068"><ele>2020.452</ele><time>2019-08-17T10:34:30Z</time></trkpt><trkpt lat="42.157116" lon="1.516967"><ele>2019.349</ele><time>2019-08-17T10:34:50Z</time></trkpt><trkpt lat="42.157016" lon="1.516865"><ele>2018.602</ele><time>2019-08-17T10:35:10Z</time></trkpt><trkpt lat="42.156922" lon="1.516809"><ele>2018.022</ele><time>2019-08-17T10:35:30Z</time></trkpt><trkpt lat="42.156828" lon="1.516751"><ele>2017.007</ele><time>2019-08-17T10:35:50Z</time></trkpt><trkpt lat="42.156734" lon="1.516694"><ele>2016.070</ele><time>2019-08-17T10:36:10Z</time></trkpt><trkpt lat="42.156632" lon="1.516633"><ele>2015.162</ele><time>2019-08-17T10:36:30Z</time></trkpt><trkpt lat="42.156530" lon="1.516571"><ele>2014.093</ele><time>2019-08-17T10:36:50Z</time></trkpt><trkpt lat="42.156428" lon="1.516509"><ele>2012.957</ele><time>2019-08-17T10:37:10Z</time></trkpt><trkpt lat="42.156327" lon="1.516447"><ele>2012.377</ele><time>2019-08-17T10:37:30Z</time></trkpt><trkpt lat="42.156234" lon="1.516395"><ele>2011.766</ele><time>2019-08-17T10:37:50Z</time></trkpt><trkpt lat="42.156141" lon="1.516343"><ele>2011.027</ele><time>2019-08-17T10:38:10Z</time></trkpt><trkpt lat="42.156049" lon="1.516240"><ele>2010.283</ele><time>2019-08-17T10:38:30Z</time></trkpt><trkpt lat="42.155958" lon="1.516136"><ele>2009.525</ele><time>2019-08-17T10:38:50Z</time></trkpt><trkpt lat="42.155866" lon="1.516033"><ele>2008.917</ele><time>2019-08-17T10:39:10Z</time></trkpt><trkpt lat="42.155776" lon="1.515919"><ele>2007.907</ele><time>2019-08-17T10:39:30Z</time></trkpt><trkpt lat="42.155686" lon="1.515805"><ele>2007.244</ele><time>2019-08-17T10:39:50Z</time></trkpt><trkpt lat="42.155596" lon="1.515691"><ele>2006.636</ele><time>2019-08-17T10:40:10Z</time></trkpt><trkpt lat="42.155507" lon="1.515577"><ele>2006.567</ele><time>2019-08-17T10:40:30Z</time></trkpt><trkpt lat="42.155395" lon="1.515481"><ele>2005.821</ele><time>2019-08-17T10:40:50Z</time></trkpt><trkpt lat="42.155283" lon="1.515384"><ele>2005.421</ele><time>2019-08-17T10:41:10Z</time></trkpt><trkpt lat="42.155172" lon="1.515288"><ele>2004.520</ele><time>2019-08-17T10:41:30Z</time></trkpt><trkpt lat="42.155076" lon="1.515231"><ele>2004.051</ele><time>2019-08-17T10:41:50Z</time></trkpt><trkpt lat="42.154980" lon="1.515174"><ele>2003.381</ele><time>2019-08-17T10:42:10Z</time></trkpt><trkpt lat="42.154883" lon="1.515117"><ele>2002.561</ele><time>2019-08-17T10:42:30Z</time></trkpt><trkpt lat="42.154776" lon="1.515058"><ele>2001.817</ele><time>2019-08-17T10:42:50Z</time></trkpt><trkpt lat="42.154668" lon="1.514999"><ele>2001.107</ele><time>2019-08-17T10:43:10Z</time></trkpt><trkpt lat="42.154561" lon="1.514940"><ele>2000.794</ele><time>2019-08-17T10:43:30Z</time></trkpt><trkpt lat="42.154454" lon="1.514880"><ele>2000.666</ele><time>2019-08-17T10:43:50Z</time></trkpt><trkpt lat="42.154339" lon="1.514824"><ele>2000.297</ele><time>2019-08-17T10:44:10Z</time></trkpt><trkpt lat="42.154225" lon="1.514767"><ele>1999.631</ele><time>2019-08-17T10:44:30Z</time></trkpt><trkpt lat="42.154149" lon="1.514868"><ele>1999.371</ele><time>2019-08-17T10:44:50Z</time></trkpt><trkpt lat="42.154073" lon="1.514968"><ele>1998.790</ele><time>2019-08-17T10:45:10Z</time></trkpt></trkseg></trk></gpx>